Time;durP1;ratioP1;P1;durP2;ratioP2;P2;SDS_P1;SDS_P2;PMS_P1;PMS_P2;Temp;Humidity;BMP_temperature;BMP_pressure;BME280_temperature;BME280_humidity;BME280_pressure;Samples;Min_cycle;Max_cycle;Signal;HPM_P1;HPM_P2
2023/12/02 00:03:31;;;;;;;75.10;33.83;;;;;;;-2.42;100.00;101011.72;10318874;28;20038;-77
2023/12/02 00:08:31;;;;;;;74.70;31.83;;;;;;;-2.40;100.00;101008.84;10282555;28;20180;-77
2023/12/02 00:13:32;;;;;;;84.53;33.80;;;;;;;-2.34;100.00;101000.09;10280559;28;20103;-77
2023/12/02 00:18:32;;;;;;;75.83;28.53;;;;;;;-2.22;100.00;101012.25;10298226;28;20065;-77
2023/12/02 00:23:33;;;;;;;65.93;28.17;;;;;;;-2.20;100.00;101009.38;10281467;28;20034;-77
2023/12/02 00:28:33;;;;;;;70.03;27.90;;;;;;;-2.17;100.00;101020.69;10347588;23;20040;-76
2023/12/02 00:33:34;;;;;;;66.07;27.73;;;;;;;-2.13;100.00;101015.78;10445739;28;20028;-77
2023/12/02 00:38:34;;;;;;;69.17;27.77;;;;;;;-2.15;100.00;100996.22;10428920;28;20032;-77
2023/12/02 00:43:35;;;;;;;64.30;30.27;;;;;;;-2.10;100.00;100993.88;10450247;28;20068;-76
2023/12/02 00:48:36;;;;;;;67.20;26.63;;;;;;;-2.07;100.00;100998.94;10439120;28;20037;-77
2023/12/02 00:53:36;;;;;;;64.67;24.87;;;;;;;-2.04;100.00;101006.69;10489582;28;20090;-76
2023/12/02 00:58:37;;;;;;;74.37;32.07;;;;;;;-2.09;100.00;100999.13;10463145;28;20040;-77
2023/12/02 01:03:37;;;;;;;70.70;25.63;;;;;;;-2.13;100.00;100984.28;10453997;28;20053;-77
2023/12/02 01:08:38;;;;;;;74.70;30.43;;;;;;;-2.05;100.00;100986.13;10445369;28;20480;-77
2023/12/02 01:13:38;;;;;;;63.23;27.40;;;;;;;-2.11;100.00;100976.88;10459587;28;20033;-77
2023/12/02 01:18:39;;;;;;;56.50;24.63;;;;;;;-2.09;100.00;100984.75;10438121;28;20032;-77
2023/12/02 01:23:39;;;;;;;67.53;28.53;;;;;;;-2.12;100.00;100990.50;10448801;28;20037;-76
2023/12/02 01:28:40;;;;;;;76.97;31.40;;;;;;;-2.09;100.00;100996.41;10459989;28;20381;-76
2023/12/02 01:33:40;;;;;;;68.57;27.13;;;;;;;-2.16;100.00;100995.41;10443407;28;20060;-77
2023/12/02 01:38:40;;;;;;;67.50;28.10;;;;;;;-2.15;100.00;101002.50;10488116;28;20043;-77
2023/12/02 01:43:41;;;;;;;69.73;28.10;;;;;;;-2.13;100.00;100999.59;10445802;28;20086;-74
2023/12/02 01:48:41;;;;;;;68.13;28.57;;;;;;;-2.16;100.00;100992.69;10468830;28;20036;-78
2023/12/02 01:53:42;;;;;;;69.90;28.40;;;;;;;-2.16;100.00;100995.41;10471677;28;20040;-77
2023/12/02 01:58:42;;;;;;;74.90;28.43;;;;;;;-2.22;100.00;100995.22;10490766;28;20099;-77
2023/12/02 02:03:43;;;;;;;69.07;29.20;;;;;;;-2.24;100.00;100990.84;10443580;28;20048;-77
2023/12/02 02:08:43;;;;;;;72.23;30.03;;;;;;;-2.16;100.00;100994.56;10414097;28;20037;-77
2023/12/02 02:13:44;;;;;;;74.57;29.53;;;;;;;-2.22;100.00;100995.22;10434867;28;20067;-76
2023/12/02 02:18:44;;;;;;;68.47;28.33;;;;;;;-2.16;100.00;100995.41;10445712;28;20446;-77
2023/12/02 02:23:45;;;;;;;72.87;27.37;;;;;;;-2.13;100.00;101008.56;10431852;28;20048;-76
2023/12/02 02:28:45;;;;;;;75.13;30.27;;;;;;;-2.14;100.00;100997.94;10411291;28;20033;-74
2023/12/02 02:33:46;;;;;;;75.13;31.70;;;;;;;-2.11;100.00;100992.19;10412656;28;20036;-77
2023/12/02 02:38:46;;;;;;;72.97;29.23;;;;;;;-2.05;100.00;101003.16;10430012;28;20049;-77
2023/12/02 02:43:47;;;;;;;71.20;28.67;;;;;;;-2.06;100.00;100989.84;10421461;28;20044;-77
2023/12/02 02:48:47;;;;;;;62.33;26.77;;;;;;;-2.15;100.00;100975.50;10420477;28;20057;-78
2023/12/02 02:53:48;;;;;;;72.77;29.33;;;;;;;-2.02;100.00;100988.50;10429265;28;20045;-77
2023/12/02 02:58:48;;;;;;;75.90;29.97;;;;;;;-2.04;100.00;100995.91;10397827;28;20045;-77
2023/12/02 03:03:48;;;;;;;81.03;32.13;;;;;;;-2.13;100.00;100975.31;10411709;28;20075;-78
2023/12/02 03:08:49;;;;;;;74.60;30.10;;;;;;;-2.00;100.00;100989.16;10411553;28;20033;-78
2023/12/02 03:13:49;;;;;;;69.73;27.97;;;;;;;-1.98;100.00;100989.84;10396657;28;20064;-77
2023/12/02 03:18:50;;;;;;;69.67;29.07;;;;;;;-2.03;100.00;100978.69;10408285;28;20144;-78
2023/12/02 03:23:50;;;;;;;62.47;28.30;;;;;;;-2.18;100.00;100964.22;10412892;28;20409;-76
2023/12/02 03:28:51;;;;;;;77.73;29.37;;;;;;;-2.09;100.00;100980.22;10438979;28;20481;-77
2023/12/02 03:33:51;;;;;;;68.60;28.47;;;;;;;-2.05;100.00;100975.31;10409808;28;20037;-77
2023/12/02 03:38:52;;;;;;;70.43;29.40;;;;;;;-2.09;100.00;100976.66;10407671;28;20120;-77
2023/12/02 03:43:52;;;;;;;71.10;30.23;;;;;;;-2.08;100.00;100981.91;10391840;28;20044;-78
2023/12/02 03:48:53;;;;;;;77.43;29.67;;;;;;;-2.12;100.00;100969.78;10407484;28;20041;-77
2023/12/02 03:53:53;;;;;;;69.97;28.07;;;;;;;-2.06;100.00;100979.06;10411186;28;20053;-75
2023/12/02 03:58:55;;;;;;;69.17;27.37;;;;;;;-2.15;100.00;100962.03;10411671;28;20112;-78
2023/12/02 04:03:55;;;;;;;68.07;28.57;;;;;;;-2.14;100.00;100970.94;10392036;28;20099;-78
2023/12/02 04:08:55;;;;;;;83.60;30.53;;;;;;;-2.09;100.00;100973.97;10408324;28;20056;-78
2023/12/02 04:13:56;;;;;;;74.97;29.73;;;;;;;-2.09;100.00;100973.97;10425401;28;20037;-77
2023/12/02 04:18:56;;;;;;;66.43;29.17;;;;;;;-1.98;100.00;100995.22;10442288;28;20045;-77
2023/12/02 04:23:57;;;;;;;82.43;32.47;;;;;;;-1.95;100.00;100991.34;10410257;28;20057;-77
2023/12/02 04:28:58;;;;;;;73.23;32.87;;;;;;;-1.93;100.00;100995.56;10406737;28;20083;-78
2023/12/02 04:33:58;;;;;;;74.20;28.97;;;;;;;-1.92;100.00;100999.94;10409122;28;20052;-77
2023/12/02 04:38:59;;;;;;;79.23;29.93;;;;;;;-1.95;100.00;101008.38;10389511;28;20044;-74
2023/12/02 04:44:01;;;;;;;73.97;28.77;;;;;;;-1.89;100.00;101018.50;10409004;28;20045;-78
2023/12/02 04:49:03;;;;;;;65.27;26.53;;;;;;;-2.04;100.00;101001.31;10410826;28;20037;-77
2023/12/02 04:54:04;;;;;;;69.97;29.03;;;;;;;-1.96;100.00;101017.50;10393317;28;20417;-78
2023/12/02 04:59:04;;;;;;;65.67;27.87;;;;;;;-1.98;100.00;101019.53;10424022;28;20059;-78
2023/12/02 05:04:05;;;;;;;67.63;29.20;;;;;;;-1.98;100.00;101014.13;10408583;28;20060;-77
2023/12/02 05:09:08;;;;;;;70.00;29.03;;;;;;;-2.03;100.00;101011.06;10424408;28;20037;-78
2023/12/02 05:14:08;;;;;;;60.80;25.40;;;;;;;-2.05;100.00;101007.69;10424540;28;20041;-78
2023/12/02 05:19:09;;;;;;;66.30;26.30;;;;;;;-2.03;100.00;101011.94;10404072;28;20038;-78
2023/12/02 05:24:09;;;;;;;74.13;28.83;;;;;;;-2.04;100.00;101030.97;10417735;28;20057;-76
2023/12/02 05:29:10;;;;;;;70.57;27.73;;;;;;;-2.05;100.00;101023.88;10422162;28;20061;-77
2023/12/02 05:34:10;;;;;;;68.33;27.03;;;;;;;-2.17;100.00;101009.03;10397408;28;20060;-78
2023/12/02 05:39:11;;;;;;;57.77;25.30;;;;;;;-2.11;100.00;101021.84;10415684;28;20410;-78
2023/12/02 05:44:11;;;;;;;73.73;29.33;;;;;;;-2.07;100.00;101021.38;10431651;28;20079;-77
2023/12/02 05:49:13;;;;;;;70.63;28.30;;;;;;;-2.12;100.00;101012.94;10415599;28;20045;-76
2023/12/02 05:54:13;;;;;;;73.43;26.03;;;;;;;-2.75;100.00;100925.41;10403733;28;20060;-74
2023/12/02 05:59:13;;;;;;;62.47;27.37;;;;;;;-2.15;100.00;101020.50;10430111;28;20037;-76
2023/12/02 06:04:14;;;;;;;62.83;25.47;;;;;;;-2.66;100.00;100948.66;10409787;28;20048;-77
2023/12/02 06:09:15;;;;;;;67.87;27.07;;;;;;;-2.04;100.00;101033.69;10413962;28;20037;-77
2023/12/02 06:14:15;;;;;;;71.43;28.00;;;;;;;-2.02;100.00;101028.97;10422345;28;20124;-79
2023/12/02 06:19:19;;;;;;;62.50;27.07;;;;;;;-2.02;100.00;101028.97;10428072;28;20053;-78
2023/12/02 06:24:20;;;;;;;64.57;26.10;;;;;;;-2.05;100.00;101031.97;10466109;28;20037;-78
2023/12/02 06:29:21;;;;;;;64.87;27.07;;;;;;;-2.01;100.00;101036.03;10412781;28;20037;-79
2023/12/02 06:34:21;;;;;;;72.43;27.33;;;;;;;-1.96;100.00;101047.19;10410854;28;20037;-78
2023/12/02 06:39:22;;;;;;;64.87;26.90;;;;;;;-2.58;100.00;100955.06;10423425;28;20094;-79
2023/12/02 06:44:22;;;;;;;72.63;26.67;;;;;;;-1.94;100.00;101042.44;10423754;28;20052;-79
2023/12/02 06:49:23;;;;;;;63.10;27.80;;;;;;;-2.03;100.00;101036.22;10393920;28;20041;-78
2023/12/02 06:54:24;;;;;;;72.83;26.63;;;;;;;-1.98;100.00;101057.28;10422534;28;20045;-78
2023/12/02 06:59:24;;;;;;;69.83;27.53;;;;;;;-2.00;100.00;101055.78;10400770;28;20045;-78
2023/12/02 07:04:25;;;;;;;64.77;25.07;;;;;;;-1.98;100.00;101073.47;10408998;28;20033;-79
2023/12/02 07:09:26;;;;;;;66.10;26.93;;;;;;;-2.01;100.00;101076.50;10426471;28;20052;-78
2023/12/02 07:14:26;;;;;;;56.07;24.63;;;;;;;-2.04;100.00;101090.34;10406582;28;20044;-79
2023/12/02 07:19:27;;;;;;;60.67;24.97;;;;;;;-2.03;100.00;101100.97;10409483;28;20044;-78
2023/12/02 07:24:27;;;;;;;59.73;25.83;;;;;;;-2.09;100.00;101098.06;10425738;28;20436;-78
2023/12/02 07:29:28;;;;;;;70.23;25.90;;;;;;;-2.05;100.00;101111.09;10401827;28;20467;-78
2023/12/02 07:34:28;;;;;;;57.67;25.80;;;;;;;-2.03;100.00;101110.91;10406480;28;20040;-78
2023/12/02 07:39:29;;;;;;;64.23;25.33;;;;;;;-2.12;100.00;101114.59;10440756;28;20052;-78
2023/12/02 07:44:29;;;;;;;59.77;24.97;;;;;;;-2.09;100.00;101119.66;10405268;28;20103;-78
2023/12/02 07:49:30;;;;;;;63.67;26.47;;;;;;;-2.10;100.00;101124.22;10406783;28;20063;-78
2023/12/02 07:54:31;;;;;;;62.43;26.23;;;;;;;-2.10;100.00;101131.47;10407811;28;20037;-78
2023/12/02 07:59:32;;;;;;;59.97;27.37;;;;;;;-2.19;100.00;101122.50;10407659;28;20045;-78
2023/12/02 08:04:32;;;;;;;66.20;27.83;;;;;;;-2.06;100.00;101132.81;10397544;28;20045;-78
2023/12/02 08:09:32;;;;;;;61.00;26.80;;;;;;;-2.11;100.00;101135.16;10405813;28;20037;-78
2023/12/02 08:14:33;;;;;;;61.70;26.37;;;;;;;-2.14;100.00;101139.03;10399094;28;20037;-77
2023/12/02 08:19:34;;;;;;;65.87;26.80;;;;;;;-2.12;100.00;101147.81;10406438;28;20040;-78
2023/12/02 08:24:36;;;;;;;54.40;24.20;;;;;;;-2.03;100.00;101145.97;10417806;28;20061;-78
2023/12/02 08:29:36;;;;;;;65.20;25.70;;;;;;;-1.92;100.00;101167.25;10421114;28;20036;-78
2023/12/02 08:34:37;;;;;;;69.17;27.50;;;;;;;-1.86;100.00;101174.69;10435142;28;20037;-78
2023/12/02 08:39:37;;;;;;;67.87;28.67;;;;;;;-1.81;100.00;101176.06;10452738;28;20045;-78
2023/12/02 08:44:38;;;;;;;58.83;25.67;;;;;;;-1.76;100.00;101179.06;10405199;28;20090;-78
2023/12/02 08:49:38;;;;;;;61.97;28.07;;;;;;;-1.79;100.00;101179.44;10422951;28;20049;-79
2023/12/02 08:54:39;;;;;;;50.67;22.50;;;;;;;-1.84;100.00;101178.06;10405933;28;20052;-75
2023/12/02 08:59:39;;;;;;;60.67;24.33;;;;;;;-1.65;100.00;101193.13;10401891;28;20056;-78
2023/12/02 09:04:40;;;;;;;57.73;23.33;;;;;;;-1.57;100.00;101189.59;10403095;28;20037;-77
2023/12/02 09:09:42;;;;;;;55.50;23.40;;;;;;;-1.51;100.00;101188.91;10403877;28;20120;-78
2023/12/02 09:14:42;;;;;;;58.03;25.23;;;;;;;-1.45;100.00;101195.47;10421954;28;20774;-78
2023/12/02 09:19:55;;;;;;;53.80;23.60;;;;;;;-1.37;100.00;101187.38;10405382;28;20343;-77
2023/12/02 09:24:56;;;;;;;62.63;24.77;;;;;;;-1.24;100.00;101197.69;10405449;28;20083;-79
2023/12/02 09:29:56;;;;;;;63.37;28.03;;;;;;;-1.11;100.00;101219.66;10419832;28;20052;-79
2023/12/02 09:35:00;;;;;;;73.10;33.50;;;;;;;-1.11;100.00;101222.34;10399067;28;20049;-78
2023/12/02 09:40:22;;;;;;;68.80;31.80;;;;;;;-1.01;100.00;101219.47;10383966;28;20037;-79
2023/12/02 09:46:00;;;;;;;69.97;35.13;;;;;;;-1.04;100.00;101215.25;10456027;28;20041;-79
2023/12/02 09:51:27;;;;;;;74.57;33.50;;;;;;;-0.98;100.00;101227.22;10374147;28;20116;-79
2023/12/02 09:56:30;;;;;;;75.60;32.97;;;;;;;-0.99;100.00;101214.75;10419914;28;20040;-79
2023/12/02 10:01:33;;;;;;;67.97;31.23;;;;;;;-0.89;100.00;101234.34;10404558;28;20055;-78
2023/12/02 10:06:47;;;;;;;66.97;28.87;;;;;;;-0.76;100.00;101239.22;10429509;28;20067;-78
2023/12/02 10:11:59;;;;;;;45.33;22.63;;;;;;;-0.63;100.00;101238.69;10457114;28;20060;-79
2023/12/02 10:16:59;;;;;;;47.03;22.17;;;;;;;-0.57;100.00;101231.75;10434955;28;20053;-79
2023/12/02 10:22:00;;;;;;;50.70;24.80;;;;;;;-0.47;100.00;101229.69;10421578;28;20046;-79
2023/12/02 10:27:04;;;;;;;46.80;23.03;;;;;;;-0.35;100.00;101217.50;10410663;28;20036;-79
2023/12/02 10:32:22;;;;;;;53.25;22.55;;;;;;;-0.42;100.00;101224.59;10439560;28;20045;-79
2023/12/02 10:37:27;;;;;;;44.17;22.57;;;;;;;-0.62;100.00;101200.66;10425086;28;20053;-80
2023/12/02 10:42:56;;;;;;;40.77;19.27;;;;;;;-0.64;100.00;101200.00;10410764;28;20331;-80
2023/12/02 10:47:58;;;;;;;41.50;20.87;;;;;;;-0.55;100.00;101208.91;10390632;28;20037;-80
2023/12/02 10:53:05;;;;;;;54.13;23.33;;;;;;;-0.44;100.00;101207.69;10399729;28;20064;-85
2023/12/02 10:58:06;;;;;;;43.37;21.80;;;;;;;-0.35;100.00;101200.41;10427737;28;20473;-86
2023/12/02 11:03:07;;;;;;;54.17;23.77;;;;;;;-0.13;100.00;101213.16;10407884;28;20036;-88
2023/12/02 11:08:09;;;;;;;51.37;24.37;;;;;;;0.13;100.00;101204.75;10441007;28;20037;-91
2023/12/02 11:13:19;;;;;;;50.00;23.03;;;;;;;0.23;100.00;101206.38;10392949;28;20748;-88
2023/12/02 11:19:21;;;;;;;47.47;20.90;;;;;;;0.40;100.00;101205.28;10383761;28;20120;-87
2023/12/02 11:24:48;;;;;;;39.00;21.20;;;;;;;0.43;100.00;101209.47;10315403;28;20466;-86
2023/12/02 11:30:03;;;;;;;45.17;20.93;;;;;;;0.93;100.00;101208.06;10399635;28;20140;-83
2023/12/02 11:35:12;;;;;;;39.03;19.23;;;;;;;1.14;100.00;101218.25;10422877;28;20064;-81
2023/12/02 11:40:33;;;;;;;38.75;19.63;;;;;;;0.91;100.00;101158.63;10438419;28;20120;-80
2023/12/02 11:45:40;;;;;;;33.87;18.57;;;;;;;1.21;100.00;101219.19;10399633;28;20037;-79
2023/12/02 11:51:09;;;;;;;33.97;17.50;;;;;;;1.13;100.00;101208.41;10407565;28;20164;-78
2023/12/02 11:56:11;;;;;;;31.52;17.48;;;;;;;1.17;100.00;101218.69;10401610;28;20056;-78
2023/12/02 12:01:44;;;;;;;30.83;16.67;;;;;;;1.21;100.00;101214.59;10406231;28;20041;-79
2023/12/02 12:07:07;;;;;;;32.43;16.73;;;;;;;1.18;100.00;101239.38;10397218;28;20423;-78
2023/12/02 12:12:07;;;;;;;26.33;14.43;;;;;;;1.18;100.00;101228.53;10392358;28;20037;-77
2023/12/02 12:17:08;;;;;;;30.80;15.67;;;;;;;1.30;100.00;101228.94;10409482;28;20124;-78
2023/12/02 12:22:08;;;;;;;26.67;13.10;;;;;;;1.45;100.00;101230.81;10390241;28;20041;-82
2023/12/02 12:27:10;;;;;;;23.40;11.48;;;;;;;1.45;100.00;101236.22;10402665;28;20115;-80
2023/12/02 12:32:11;;;;;;;21.80;12.13;;;;;;;1.75;100.00;101243.38;10406477;28;20068;-79
2023/12/02 12:37:16;;;;;;;22.00;11.77;;;;;;;2.06;100.00;101245.03;10422909;28;20044;-79
2023/12/02 12:42:17;;;;;;;22.27;12.18;;;;;;;2.34;100.00;101236.19;10437487;28;20052;-79
2023/12/02 12:47:18;;;;;;;18.53;10.70;;;;;;;2.71;100.00;101226.13;10404167;28;20477;-80
2023/12/02 12:52:19;;;;;;;14.98;8.30;;;;;;;3.32;100.00;101234.63;10405427;28;20033;-80
2023/12/02 12:58:01;;;;;;;16.75;8.52;;;;;;;3.91;100.00;101216.16;10398432;28;20045;-82
2023/12/02 13:03:26;;;;;;;13.07;7.97;;;;;;;4.83;100.00;101221.03;10422090;28;20045;-83
2023/12/02 13:08:31;;;;;;;14.50;8.38;;;;;;;5.47;100.00;101216.84;10448748;28;20079;-84
2023/12/02 13:13:32;;;;;;;11.00;7.32;;;;;;;6.00;100.00;101193.22;10438207;28;20068;-85
2023/12/02 13:18:33;;;;;;;13.48;6.90;;;;;;;6.41;100.00;101208.38;10424313;28;20415;-94
2023/12/02 13:23:33;;;;;;;13.63;7.15;;;;;;;6.02;100.00;101205.59;10409456;28;20059;-93
2023/12/02 13:28:37;;;;;;;11.18;7.18;;;;;;;4.94;100.00;101224.19;10407143;28;20049;-91
2023/12/02 13:34:02;;;;;;;10.05;6.25;;;;;;;3.88;100.00;101220.09;10438657;28;20044;-92
2023/12/02 13:39:07;;;;;;;12.02;6.60;;;;;;;3.45;100.00;101244.75;10402331;28;20037;-89
2023/12/02 13:44:08;;;;;;;15.57;7.90;;;;;;;2.98;100.00;101236.22;10431183;28;20041;-91
2023/12/02 13:49:23;;;;;;;12.00;6.53;;;;;;;2.84;100.00;101256.19;10431255;28;20075;-91
2023/12/02 13:54:31;;;;;;;11.48;7.82;;;;;;;2.63;100.00;101266.00;10420747;28;20549;-91
2023/12/02 13:59:45;;;;;;;15.40;7.22;;;;;;;2.34;100.00;101263.38;10407454;28;20040;-89
2023/12/02 14:05:05;;;;;;;13.27;7.63;;;;;;;2.19;100.00;101272.38;10413336;28;20060;-90
2023/12/02 14:10:06;;;;;;;13.80;7.63;;;;;;;2.05;100.00;101286.81;10440999;28;20059;-89
2023/12/02 14:15:25;;;;;;;14.52;7.63;;;;;;;1.94;100.00;101292.72;10430217;28;20129;-84
2023/12/02 14:20:36;;;;;;;13.63;8.43;;;;;;;1.80;100.00;101289.81;10457139;28;20110;-87
2023/12/02 14:25:42;;;;;;;18.20;10.13;;;;;;;1.76;100.00;101298.53;10462910;28;20041;-86
2023/12/02 14:31:17;;;;;;;17.77;8.93;;;;;;;1.66;100.00;101309.66;10451044;28;20073;-84
2023/12/02 14:36:32;;;;;;;21.70;11.30;;;;;;;1.59;100.00;101312.25;10411700;28;20408;-84
2023/12/02 14:41:49;;;;;;;24.70;11.52;;;;;;;1.53;100.00;101312.13;10401301;28;20082;-83
2023/12/02 14:47:04;;;;;;;20.27;12.67;;;;;;;1.36;100.00;101315.00;10418477;28;20045;-84
2023/12/02 14:52:05;;;;;;;26.23;12.68;;;;;;;1.30;100.00;101332.03;10386850;28;20052;-83
2023/12/02 14:57:22;;;;;;;26.13;13.60;;;;;;;1.16;100.00;101343.66;10403337;28;20168;-83
2023/12/02 15:02:38;;;;;;;29.30;11.95;;;;;;;0.98;100.00;101339.38;10405984;28;20040;-82
2023/12/02 15:07:40;;;;;;;;;;;;;;;1.00;100.00;101355.47;10402613;28;21094;-82
2023/12/02 15:12:45;;;;;;;22.43;12.87;;;;;;;0.82;100.00;101338.63;10417628;28;19974;-83
2023/12/02 15:17:45;;;;;;;31.20;13.50;;;;;;;0.77;100.00;101342.72;10401507;28;20059;-82
2023/12/02 15:22:46;;;;;;;24.80;13.00;;;;;;;0.72;100.00;101355.09;10383016;28;20044;-82
2023/12/02 15:27:46;;;;;;;22.37;12.57;;;;;;;0.29;100.00;101312.16;10415753;28;20064;-82
2023/12/02 15:32:47;;;;;;;31.63;14.33;;;;;;;0.62;100.00;101381.56;10336622;28;20041;-82
2023/12/02 15:37:48;;;;;;;25.03;12.57;;;;;;;0.56;100.00;101394.81;10349603;28;20387;-82
2023/12/02 15:42:49;;;;;;;25.57;12.93;;;;;;;0.52;100.00;101390.78;10350973;28;20057;-82
2023/12/02 15:47:49;;;;;;;21.83;12.20;;;;;;;0.40;100.00;101389.47;10348949;28;20052;-82
2023/12/02 15:52:49;;;;;;;29.33;14.03;;;;;;;0.35;100.00;101398.13;10353559;28;20030;-84
2023/12/02 15:57:50;;;;;;;24.80;14.40;;;;;;;0.25;100.00;101397.47;10339961;28;20108;-78
2023/12/02 16:02:50;;;;;;;32.43;15.43;;;;;;;0.27;100.00;101414.41;10352781;28;20041;-84
2023/12/02 16:07:51;;;;;;;29.07;14.73;;;;;;;0.27;100.00;101422.53;10328559;28;20094;-84
2023/12/02 16:12:51;;;;;;;30.50;15.23;;;;;;;0.26;100.00;101422.69;10314420;28;20561;-84
2023/12/02 16:17:52;;;;;;;40.73;19.20;;;;;;;0.25;100.00;101429.09;10347725;28;20588;-84
2023/12/02 16:22:52;;;;;;;34.97;16.92;;;;;;;0.22;100.00;101424.88;10328390;28;20498;-81
2023/12/02 16:27:53;;;;;;;38.93;19.20;;;;;;;0.18;100.00;101428.97;10352191;28;20156;-84
2023/12/02 16:32:54;;;;;;;35.57;18.37;;;;;;;0.23;100.00;101442.84;10381314;28;20048;-85
2023/12/02 16:37:55;;;;;;;40.37;18.13;;;;;;;0.13;100.00;101437.59;10417301;28;20068;-88
2023/12/02 16:42:55;;;;;;;41.53;20.00;;;;;;;0.16;100.00;101453.50;10435859;28;20040;-88
2023/12/02 16:47:55;;;;;;;38.60;17.27;;;;;;;0.04;100.00;101430.50;10391421;28;20048;-85
2023/12/02 16:52:59;;;;;;;38.20;21.27;;;;;;;-0.03;100.00;101443.03;10405358;28;20409;-89
2023/12/02 16:58:00;;;;;;;49.17;20.55;;;;;;;-0.08;100.00;101440.84;10407925;28;20096;-88
2023/12/02 17:03:00;;;;;;;39.22;19.17;;;;;;;-0.02;100.00;101461.81;10407650;28;20041;-84
2023/12/02 17:08:23;;;;;;;38.20;16.80;;;;;;;0.02;100.00;101461.47;10417563;28;20045;-82
2023/12/02 17:13:26;;;;;;;44.97;18.93;;;;;;;0.04;100.00;101465.69;10455048;28;20100;-81
2023/12/02 17:18:32;;;;;;;54.27;21.93;;;;;;;0.07;100.00;101464.53;10449610;28;20075;-81
2023/12/02 17:23:33;;;;;;;47.20;21.13;;;;;;;0.10;100.00;101469.59;10434578;28;20029;-80
2023/12/02 17:28:34;;;;;;;47.33;20.90;;;;;;;0.13;100.00;101475.50;10402438;28;20053;-82
2023/12/02 17:33:37;;;;;;;47.30;21.97;;;;;;;0.19;100.00;101476.69;10418696;28;20037;-80
2023/12/02 17:38:37;;;;;;;44.10;20.27;;;;;;;0.18;100.00;101478.53;10434828;28;20037;-80
2023/12/02 17:43:38;;;;;;;51.35;22.90;;;;;;;0.22;100.00;101478.22;10455323;28;20037;-80
2023/12/02 17:48:38;;;;;;;49.40;22.40;;;;;;;0.34;100.00;101493.09;10438238;28;20033;-82
2023/12/02 17:53:39;;;;;;;44.42;22.02;;;;;;;0.35;100.00;101495.63;10439188;28;20052;-80
2023/12/02 17:58:40;;;;;;;52.43;23.03;;;;;;;0.32;100.00;101490.53;10421101;28;20037;-81
2023/12/02 18:03:40;;;;;;;57.97;23.60;;;;;;;0.37;100.00;101495.44;10437915;28;20037;-81
2023/12/02 18:08:41;;;;;;;55.85;23.42;;;;;;;0.33;100.00;101491.38;10420894;28;20033;-81
2023/12/02 18:13:41;;;;;;;53.13;21.70;;;;;;;0.35;100.00;101501.06;10455319;28;20037;-80
2023/12/02 18:18:42;;;;;;;58.17;23.97;;;;;;;0.28;100.00;101488.34;10422050;28;20048;-79
2023/12/02 18:23:43;;;;;;;57.13;23.65;;;;;;;0.33;100.00;101497.66;10421390;28;20033;-79
2023/12/02 18:28:43;;;;;;;60.63;26.07;;;;;;;0.27;100.00;101486.66;10444367;28;20036;-80
2023/12/02 18:33:44;;;;;;;65.97;24.53;;;;;;;0.30;100.00;101495.28;10428121;28;20559;-80
2023/12/02 18:38:45;;;;;;;67.77;25.83;;;;;;;0.27;100.00;101501.06;10411218;28;20099;-80
2023/12/02 18:43:45;;;;;;;65.47;24.77;;;;;;;0.30;100.00;101503.41;10423887;28;20060;-80
2023/12/02 18:48:46;;;;;;;66.27;26.10;;;;;;;0.25;100.00;101480.56;10422832;28;20048;-80
2023/12/02 18:53:46;;;;;;;71.80;26.83;;;;;;;0.32;100.00;101500.53;10424287;28;20044;-79
2023/12/02 18:58:47;;;;;;;67.60;27.40;;;;;;;0.28;100.00;101499.19;10461200;28;20151;-80
2023/12/02 19:03:48;;;;;;;73.53;28.07;;;;;;;0.32;100.00;101506.78;10417051;28;20059;-80
2023/12/02 19:08:48;;;;;;;79.73;26.87;;;;;;;0.22;100.00;101494.47;10442948;28;20409;-80
2023/12/02 19:13:49;;;;;;;66.90;27.53;;;;;;;0.28;100.00;101504.59;10442986;28;20071;-80
2023/12/02 19:18:49;;;;;;;66.53;26.73;;;;;;;0.18;100.00;101500.19;10461427;28;20052;-79
2023/12/02 19:23:50;;;;;;;71.73;27.87;;;;;;;0.07;100.00;101508.69;10427755;28;20041;-80
2023/12/02 19:28:50;;;;;;;67.90;26.13;;;;;;;-0.16;100.00;101483.31;10441697;28;20037;-79
2023/12/02 19:33:51;;;;;;;67.10;27.85;;;;;;;-0.19;100.00;101508.84;10442323;28;20064;-79
2023/12/02 19:38:52;;;;;;;75.60;30.23;;;;;;;-0.22;100.00;101504.59;10424011;28;20501;-75
2023/12/02 19:43:52;;;;;;;75.03;30.63;;;;;;;-0.19;100.00;101518.81;10441937;28;20067;-78
2023/12/02 19:48:53;;;;;;;76.53;29.57;;;;;;;-0.13;100.00;101516.28;10460254;28;20025;-77
2023/12/02 19:53:53;;;;;;;78.07;28.27;;;;;;;-0.04;100.00;101517.16;10429702;28;20036;-78
2023/12/02 19:58:53;;;;;;;71.00;28.03;;;;;;;-0.01;100.00;101509.50;10424199;28;20109;-79
2023/12/02 20:03:54;;;;;;;64.10;26.53;;;;;;;-0.02;100.00;101504.28;10440799;28;20527;-79
2023/12/02 20:08:54;;;;;;;64.40;25.10;;;;;;;-0.03;100.00;101498.00;10440121;28;20060;-80
2023/12/02 20:13:56;;;;;;;61.83;26.10;;;;;;;0.20;100.00;101536.06;10440398;28;20037;-79
2023/12/02 20:18:57;;;;;;;62.72;24.00;;;;;;;0.22;100.00;101526.94;10408176;28;20045;-79
2023/12/02 20:23:58;;;;;;;54.73;22.37;;;;;;;0.23;100.00;101528.63;10408323;28;20083;-80
2023/12/02 20:28:59;;;;;;;64.80;24.33;;;;;;;0.05;100.00;101516.13;10406651;28;20048;-80
2023/12/02 20:34:01;;;;;;;62.97;24.75;;;;;;;0.14;100.00;101541.34;10444461;28;20052;-79
2023/12/02 20:39:06;;;;;;;59.53;23.17;;;;;;;0.08;100.00;101542.00;10439085;28;20043;-78
2023/12/02 20:44:07;;;;;;;63.45;24.83;;;;;;;-0.10;100.00;101534.91;10401499;28;20044;-79
2023/12/02 20:49:07;;;;;;;57.70;22.90;;;;;;;-0.15;100.00;101539.13;10436010;28;20041;-77
2023/12/02 20:54:08;;;;;;;67.43;25.35;;;;;;;-0.14;100.00;101535.41;10439748;28;20044;-78
2023/12/02 20:59:09;;;;;;;61.23;23.07;;;;;;;-0.02;100.00;101551.16;10427715;28;20044;-78
2023/12/02 21:04:09;;;;;;;62.23;24.27;;;;;;;0.01;100.00;101552.66;10427024;28;20353;-78
2023/12/02 21:09:11;;;;;;;55.00;23.90;;;;;;;0.05;100.00;101554.03;10411364;28;20060;-78
2023/12/02 21:14:11;;;;;;;65.60;26.03;;;;;;;0.07;100.00;101564.69;10452835;28;20491;-78
2023/12/02 21:19:14;;;;;;;62.93;24.10;;;;;;;0.13;100.00;101567.56;10423676;28;20046;-79
2023/12/02 21:24:14;;;;;;;67.80;24.60;;;;;;;0.11;100.00;101569.59;10438896;28;20071;-78
2023/12/02 21:29:15;;;;;;;69.33;25.53;;;;;;;0.06;100.00;101550.28;10455563;28;20049;-78
2023/12/02 21:34:16;;;;;;;63.73;23.97;;;;;;;0.09;100.00;101554.53;10421842;28;20171;-78
2023/12/02 21:39:19;;;;;;;63.87;25.37;;;;;;;0.10;100.00;101557.06;10421632;28;20052;-78
2023/12/02 21:44:20;;;;;;;64.07;27.40;;;;;;;0.19;100.00;101568.75;10455645;28;20053;-79
2023/12/02 21:49:20;;;;;;;62.20;23.83;;;;;;;0.17;100.00;101563.50;10457774;28;20396;-79
2023/12/02 21:54:21;;;;;;;54.80;22.97;;;;;;;0.13;100.00;101578.41;10421086;28;20037;-79
2023/12/02 21:59:21;;;;;;;58.97;21.37;;;;;;;0.15;100.00;101584.50;10408370;28;20040;-80
2023/12/02 22:04:23;;;;;;;50.27;22.03;;;;;;;-0.06;100.00;101554.38;10438186;28;20099;-81
2023/12/02 22:09:26;;;;;;;51.70;20.17;;;;;;;0.09;100.00;101571.63;10444723;28;20100;-84
2023/12/02 22:14:29;;;;;;;56.67;19.40;;;;;;;0.05;100.00;101581.09;10423535;28;20047;-80
2023/12/02 22:19:29;;;;;;;66.30;22.40;;;;;;;0.07;100.00;101579.06;10418980;28;20397;-80
2023/12/02 22:24:30;;;;;;;56.27;19.83;;;;;;;0.05;100.00;101586.50;10463264;28;20033;-81
2023/12/02 22:29:30;;;;;;;67.27;20.87;;;;;;;-0.06;100.00;101578.72;10411636;28;20033;-80
2023/12/02 22:34:31;;;;;;;59.87;22.03;;;;;;;-0.04;100.00;101598.38;10427899;28;20090;-81